Decoded Metar for KRPD (RICE LAKE in WI, USA) (IATA:RPD) | Meteo·Mobile Aviation Weather
aviador You're here:

KRPD Decoded Metar

RICE LAKE in WI, USA
Report Time2018-11-18 20:35:00
UTC Time2018-11-18 20:55:27
Flight Rules vfr VFR
Wind210° at 08 kt
W.Decomp.*RWY 19: 7.6 kt HW 2.6 kt RCW
RWY 13: 1.5 kt HW 7.9 kt RCW
W.Rank210° ranks 26
Current wind is above 210° avg. (6.6)
Visibility9999 m
Phenomena:N/A
Clouds:N/A
Expected CloudBase > 2,800 ft AGL from Temp-Dew spread
CeilingNone
Temp-2°C (ISA -15)
Dew Point-9°C (59% RH)
AAT-7.9°C
QNH1019 hPa
Density Alt-860 ft
Elevation1,109 ft
Report Wrong Elevation
Raw Report
KRPD 182035Z AUTO 21008KT 10SM CLR M02/M09 A3008 RMK AO2
T10251090=

Extra information for KRPD:More info

Metar Taf Metar & Taf Last 4 Metars F.Rules Stats Wind Profile Meteogram Temp Stats Airport Information Weather charts Add Link Nearby VenuesMetar ALERT Operation Metar Decoded Social comments

AIRNAV info for KRPD